createdAt,value
2023-03-31T00:01:10.559Z,14.77
2023-03-31T00:03:44.801Z,14.61
2023-03-31T00:06:19.024Z,15.09
2023-03-31T00:08:52.042Z,14.87
2023-03-31T00:11:22.704Z,15.09
2023-03-31T00:13:51.063Z,14.90
2023-03-31T00:16:19.819Z,14.97
2023-03-31T00:18:51.164Z,14.94
2023-03-31T00:21:26.094Z,15.40
2023-03-31T00:23:55.855Z,15.14
2023-03-31T00:26:24.716Z,14.95
2023-03-31T00:28:53.784Z,14.95
2023-03-31T00:31:22.621Z,14.65
2023-03-31T00:33:51.365Z,14.81
2023-03-31T00:36:27.524Z,15.00
2023-03-31T00:38:56.398Z,14.69
2023-03-31T00:41:24.965Z,14.24
2023-03-31T00:44:14.505Z,15.29
2023-03-31T00:46:47.051Z,14.96
2023-03-31T00:49:20.990Z,14.86
2023-03-31T00:51:52.635Z,14.83
2023-03-31T00:54:21.599Z,14.60
2023-03-31T00:56:53.402Z,14.81
2023-03-31T00:59:22.357Z,14.62
2023-03-31T01:01:52.997Z,14.38
2023-03-31T01:04:22.698Z,14.22
2023-03-31T01:07:01.025Z,14.81
2023-03-31T01:09:35.318Z,14.62
2023-03-31T01:12:07.707Z,14.68
2023-03-31T01:14:36.241Z,14.47
2023-03-31T01:17:05.503Z,14.43
2023-03-31T01:19:46.533Z,14.92
2023-03-31T01:22:41.410Z,15.17
2023-03-31T01:25:38.842Z,15.18
2023-03-31T01:28:14.386Z,14.88
2023-03-31T01:31:19.178Z,15.21
2023-03-31T01:34:25.094Z,15.26
2023-03-31T01:37:37.779Z,15.02
2023-03-31T01:40:50.839Z,15.10
2023-03-31T01:43:24.696Z,14.75
2023-03-31T01:45:58.776Z,14.75
2023-03-31T01:48:35.427Z,14.51
2023-03-31T01:51:08.322Z,14.28
2023-03-31T01:53:42.381Z,14.27
2023-03-31T01:56:16.523Z,14.26
2023-03-31T01:58:52.574Z,14.31
2023-03-31T02:01:25.512Z,14.19
2023-03-31T02:03:57.008Z,14.15
2023-03-31T02:06:30.774Z,14.26
2023-03-31T02:09:02.437Z,14.13
2023-03-31T02:11:32.478Z,14.19
2023-03-31T02:14:03.953Z,14.17
2023-03-31T02:16:34.858Z,14.38
2023-03-31T02:19:06.163Z,14.37
2023-03-31T02:21:36.469Z,14.12
2023-03-31T02:24:08.638Z,14.27
2023-03-31T02:26:39.531Z,14.26
2023-03-31T02:29:09.383Z,14.20
2023-03-31T02:31:44.035Z,14.36
2023-03-31T02:34:12.797Z,13.66
2023-03-31T02:36:42.428Z,14.14
2023-03-31T02:39:13.943Z,14.50
2023-03-31T02:41:42.988Z,13.85
2023-03-31T02:44:13.299Z,14.15
2023-03-31T02:46:42.246Z,13.92
2023-03-31T02:49:12.083Z,14.22
2023-03-31T02:52:06.521Z,14.66
2023-03-31T02:54:49.575Z,14.59
2023-03-31T02:57:29.704Z,14.55
2023-03-31T03:00:09.573Z,14.55
2023-03-31T03:02:45.712Z,14.46
2023-03-31T03:05:26.343Z,14.61
2023-03-31T03:08:00.056Z,14.34
2023-03-31T03:10:31.990Z,14.38
2023-03-31T03:13:07.952Z,14.54
2023-03-31T03:15:39.346Z,14.38
2023-03-31T03:18:08.283Z,13.94
2023-03-31T03:20:36.725Z,13.88
2023-03-31T03:23:05.238Z,13.81
2023-03-31T03:25:34.253Z,13.99
2023-03-31T03:28:02.890Z,13.93
2023-03-31T03:30:31.261Z,14.02
2023-03-31T03:33:01.376Z,14.35
2023-03-31T03:35:29.774Z,14.05
2023-03-31T03:37:58.363Z,13.94
2023-03-31T03:40:26.703Z,13.85
2023-03-31T03:42:55.204Z,13.78
2023-03-31T03:45:23.555Z,13.80
2023-03-31T03:47:52.290Z,13.68
2023-03-31T03:50:22.322Z,14.22
2023-03-31T03:52:50.887Z,13.93
2023-03-31T03:55:19.162Z,13.78
2023-03-31T03:57:47.728Z,13.85
2023-03-31T04:00:17.116Z,13.85
2023-03-31T04:02:45.827Z,13.89
2023-03-31T04:05:14.173Z,13.82
2023-03-31T04:07:44.218Z,14.20
2023-03-31T04:10:12.805Z,13.78
2023-03-31T04:12:41.742Z,13.87
2023-03-31T04:15:10.850Z,14.00
2023-03-31T04:17:39.428Z,13.77
2023-03-31T04:20:10.209Z,14.16
2023-03-31T04:22:41.768Z,13.92
2023-03-31T04:25:16.929Z,14.18
2023-03-31T04:27:47.019Z,14.00
2023-03-31T04:30:22.903Z,13.98
2023-03-31T04:32:53.312Z,13.98
2023-03-31T04:35:22.624Z,13.59
2023-03-31T04:37:52.634Z,13.59
2023-03-31T04:40:22.449Z,13.67
2023-03-31T04:42:51.325Z,13.14
2023-03-31T04:45:19.765Z,13.27
2023-03-31T04:47:48.478Z,13.14
2023-03-31T04:50:17.233Z,13.12
2023-03-31T04:52:46.447Z,13.22
2023-03-31T04:55:14.791Z,13.33
2023-03-31T04:57:44.979Z,13.82
2023-03-31T05:00:14.999Z,13.66
2023-03-31T05:02:43.661Z,13.38
2023-03-31T05:05:12.362Z,13.78
2023-03-31T05:07:41.218Z,14.32
2023-03-31T05:10:10.384Z,14.99
2023-03-31T05:12:39.386Z,15.24
2023-03-31T05:15:10.408Z,16.22
2023-03-31T05:17:38.990Z,16.34
2023-03-31T05:20:09.694Z,17.07
2023-03-31T05:22:40.781Z,17.54
2023-03-31T05:25:11.876Z,17.97
2023-03-31T05:27:40.416Z,17.88
2023-03-31T05:30:11.240Z,18.60
2023-03-31T05:32:40.094Z,18.35
2023-03-31T05:35:09.026Z,18.64
2023-03-31T05:37:38.514Z,19.17
2023-03-31T05:40:09.387Z,19.44
2023-03-31T05:42:38.120Z,19.73
2023-03-31T05:45:09.192Z,20.25
2023-03-31T05:47:40.005Z,20.91
2023-03-31T05:50:09.486Z,20.75
2023-03-31T05:52:38.465Z,21.13
2023-03-31T05:55:08.176Z,21.50
2023-03-31T05:57:37.153Z,21.67
2023-03-31T06:00:09.481Z,22.06
2023-03-31T06:02:41.292Z,22.29
2023-03-31T06:05:10.407Z,22.13
2023-03-31T06:07:39.246Z,22.54
2023-03-31T06:10:11.012Z,23.50
2023-03-31T06:12:40.305Z,23.85
2023-03-31T06:15:10.219Z,24.32
2023-03-31T06:17:40.920Z,24.87
2023-03-31T06:20:24.080Z,24.88
2023-03-31T06:22:56.294Z,24.74
2023-03-31T06:25:24.748Z,24.70
2023-03-31T06:27:53.958Z,24.70
2023-03-31T06:30:23.015Z,24.68
2023-03-31T06:32:53.204Z,25.28
2023-03-31T06:35:21.587Z,25.31
2023-03-31T06:37:50.523Z,25.85
2023-03-31T06:40:19.206Z,26.65
2023-03-31T06:42:47.946Z,27.18
2023-03-31T06:45:16.604Z,27.43
2023-03-31T06:47:45.524Z,27.76
2023-03-31T06:50:15.491Z,28.04
2023-03-31T06:52:44.318Z,27.89
2023-03-31T06:55:13.452Z,28.08
2023-03-31T06:57:42.471Z,28.69
2023-03-31T07:00:11.899Z,29.65
2023-03-31T07:02:41.032Z,30.20
2023-03-31T07:05:11.709Z,30.47
2023-03-31T07:07:42.893Z,30.74
2023-03-31T07:10:13.218Z,30.55
2023-03-31T07:12:41.911Z,30.75
2023-03-31T07:15:11.482Z,30.90
2023-03-31T07:17:42.168Z,31.01
2023-03-31T07:20:15.129Z,31.68
2023-03-31T07:22:47.187Z,32.43
2023-03-31T07:25:18.124Z,32.72
2023-03-31T07:27:47.049Z,32.86
2023-03-31T07:30:17.666Z,33.33
2023-03-31T07:32:50.482Z,34.44
2023-03-31T07:35:20.057Z,33.93
2023-03-31T07:37:51.448Z,34.34
2023-03-31T07:40:22.672Z,34.73
2023-03-31T07:42:52.396Z,35.43
2023-03-31T07:45:21.828Z,35.84
2023-03-31T07:47:51.180Z,35.97
2023-03-31T07:50:20.555Z,36.04
2023-03-31T07:52:50.818Z,36.06
2023-03-31T07:55:20.144Z,35.77
2023-03-31T07:57:52.096Z,36.23
2023-03-31T08:00:21.532Z,35.71
2023-03-31T08:02:50.290Z,34.34
2023-03-31T08:05:20.920Z,32.83
2023-03-31T08:07:52.080Z,31.11
2023-03-31T08:10:21.316Z,30.89
2023-03-31T08:12:50.367Z,29.44
2023-03-31T08:15:19.543Z,29.10
2023-03-31T08:17:48.432Z,28.13
2023-03-31T08:20:16.995Z,27.25
2023-03-31T08:22:46.010Z,27.00
2023-03-31T08:25:16.463Z,27.30
2023-03-31T08:27:46.721Z,27.06
2023-03-31T08:30:15.588Z,26.83
2023-03-31T08:32:44.597Z,26.71
2023-03-31T08:35:13.123Z,27.33
2023-03-31T08:37:42.071Z,28.51
2023-03-31T08:40:18.106Z,30.71
2023-03-31T08:42:49.229Z,31.78
2023-03-31T08:45:22.372Z,32.98
2023-03-31T08:47:54.122Z,34.51
2023-03-31T08:50:27.217Z,35.71
2023-03-31T08:53:01.285Z,36.00
2023-03-31T08:55:37.127Z,36.43
2023-03-31T08:58:10.831Z,35.04
2023-03-31T09:00:44.875Z,34.52
2023-03-31T09:03:18.467Z,34.78
2023-03-31T09:06:00.733Z,36.05
2023-03-31T09:08:38.429Z,37.45
2023-03-31T09:11:16.652Z,38.77
2023-03-31T09:14:02.213Z,40.40
2023-03-31T09:16:35.293Z,41.84
2023-03-31T09:19:04.495Z,42.29
2023-03-31T09:21:34.481Z,41.70
2023-03-31T09:24:08.266Z,38.81
2023-03-31T09:26:44.157Z,38.02
2023-03-31T09:29:19.462Z,38.94
2023-03-31T09:31:48.644Z,39.54
2023-03-31T09:34:21.230Z,40.01
2023-03-31T09:36:49.604Z,39.56
2023-03-31T09:39:18.431Z,39.60
2023-03-31T09:41:50.664Z,40.09
2023-03-31T09:44:32.260Z,39.61
2023-03-31T09:47:01.156Z,38.38
2023-03-31T09:49:30.454Z,39.00
2023-03-31T09:52:07.843Z,38.79
2023-03-31T09:54:39.071Z,36.64
2023-03-31T09:57:17.633Z,35.42
2023-03-31T09:59:52.622Z,33.74
2023-03-31T10:02:29.941Z,32.89
2023-03-31T10:04:59.023Z,31.52
2023-03-31T10:07:27.848Z,31.08
2023-03-31T10:09:57.501Z,31.03
2023-03-31T10:12:29.938Z,31.29
2023-03-31T10:15:14.452Z,30.40
2023-03-31T10:17:55.019Z,28.80
2023-03-31T10:20:35.501Z,27.59
2023-03-31T10:23:06.798Z,26.68
2023-03-31T10:25:36.452Z,26.43
2023-03-31T10:28:06.593Z,26.71
2023-03-31T10:30:38.370Z,26.34
2023-03-31T10:33:22.078Z,25.72
2023-03-31T10:35:55.998Z,25.04
2023-03-31T10:38:28.409Z,24.86
2023-03-31T10:40:58.050Z,24.28
2023-03-31T10:43:29.864Z,24.75
2023-03-31T10:46:00.271Z,24.84
2023-03-31T10:48:30.844Z,25.19
2023-03-31T10:51:07.262Z,25.55
2023-03-31T10:53:42.340Z,25.05
2023-03-31T10:56:20.638Z,24.47
2023-03-31T10:59:05.311Z,23.98
2023-03-31T11:01:45.640Z,23.81
2023-03-31T11:04:43.521Z,23.71
2023-03-31T11:07:18.854Z,23.45
2023-03-31T11:10:00.478Z,23.47
2023-03-31T11:12:34.477Z,23.41
2023-03-31T11:15:14.632Z,23.62
2023-03-31T11:17:56.424Z,23.76
2023-03-31T11:20:31.034Z,23.74
2023-03-31T11:23:03.997Z,23.74
2023-03-31T11:25:40.455Z,23.64
2023-03-31T11:28:33.585Z,23.41
2023-03-31T11:31:14.214Z,22.99
2023-03-31T11:33:55.359Z,22.96
2023-03-31T11:36:41.798Z,23.15
2023-03-31T11:39:26.003Z,23.15
2023-03-31T11:41:59.673Z,23.06
2023-03-31T11:44:30.831Z,22.54
2023-03-31T11:47:03.843Z,22.87
2023-03-31T11:49:38.499Z,23.10
2023-03-31T11:52:10.889Z,23.48
2023-03-31T11:54:43.889Z,23.67
2023-03-31T11:57:15.214Z,24.18
2023-03-31T11:59:45.530Z,24.51
2023-03-31T12:02:19.249Z,24.68
2023-03-31T12:04:51.125Z,24.71
2023-03-31T12:07:25.309Z,24.69
2023-03-31T12:10:06.064Z,24.29
2023-03-31T12:12:37.325Z,23.86
2023-03-31T12:15:08.793Z,24.58
2023-03-31T12:17:41.866Z,24.04
2023-03-31T12:20:26.961Z,24.45
2023-03-31T12:22:56.368Z,24.59
2023-03-31T12:25:26.793Z,24.81
2023-03-31T12:27:56.651Z,24.88
2023-03-31T12:30:30.515Z,25.25
2023-03-31T12:33:02.987Z,24.20
2023-03-31T12:35:39.222Z,23.24
2023-03-31T12:38:20.654Z,23.73
2023-03-31T12:40:57.977Z,23.25
2023-03-31T12:43:38.742Z,23.13
2023-03-31T12:46:19.371Z,22.82
2023-03-31T12:49:00.795Z,22.87
2023-03-31T12:51:43.724Z,22.73
2023-03-31T12:54:23.672Z,22.32
2023-03-31T12:57:06.883Z,22.16
2023-03-31T12:59:36.585Z,21.83
2023-03-31T13:02:21.744Z,22.85
2023-03-31T13:04:52.111Z,21.89
2023-03-31T13:07:39.371Z,22.37
2023-03-31T13:10:30.232Z,22.77
2023-03-31T13:13:03.823Z,22.31
2023-03-31T13:15:32.940Z,21.67
2023-03-31T13:18:04.557Z,21.99
2023-03-31T13:20:38.692Z,22.31
2023-03-31T13:23:17.502Z,22.10
2023-03-31T13:25:47.339Z,21.16
2023-03-31T13:28:26.945Z,21.59
2023-03-31T13:30:58.043Z,20.78
2023-03-31T13:33:30.498Z,20.42
2023-03-31T13:36:29.672Z,21.01
2023-03-31T13:39:11.114Z,21.22
2023-03-31T13:41:51.370Z,21.72
2023-03-31T13:44:55.913Z,21.78
2023-03-31T13:47:47.772Z,21.78
2023-03-31T13:50:39.272Z,21.38
2023-03-31T13:53:21.681Z,21.18
2023-03-31T13:56:14.549Z,21.43
2023-03-31T13:59:04.726Z,21.13
2023-03-31T14:01:45.161Z,21.23
2023-03-31T14:04:24.079Z,20.82
2023-03-31T14:06:56.196Z,20.68
2023-03-31T14:09:28.564Z,20.15
2023-03-31T14:12:00.185Z,19.41
2023-03-31T14:14:29.899Z,18.89
2023-03-31T14:17:00.863Z,19.26
2023-03-31T14:19:44.504Z,19.51
2023-03-31T14:22:19.679Z,19.12
2023-03-31T14:24:53.588Z,19.22
2023-03-31T14:27:32.487Z,19.16
2023-03-31T14:30:03.320Z,19.05
2023-03-31T14:32:37.063Z,19.11
2023-03-31T14:35:23.905Z,19.20
2023-03-31T14:37:52.811Z,18.44
2023-03-31T14:40:22.692Z,18.82
2023-03-31T14:42:51.425Z,18.28
2023-03-31T14:45:22.184Z,18.70
2023-03-31T14:47:58.206Z,18.81
2023-03-31T14:50:31.448Z,18.60
2023-03-31T14:53:01.484Z,18.07
2023-03-31T14:55:54.333Z,18.68
2023-03-31T14:58:27.284Z,18.77
2023-03-31T15:00:56.269Z,18.25
2023-03-31T15:03:27.615Z,18.52
2023-03-31T15:05:58.754Z,18.63
2023-03-31T15:08:27.367Z,19.01
2023-03-31T15:11:11.982Z,18.39
2023-03-31T15:13:46.865Z,18.24
2023-03-31T15:16:22.822Z,18.48
2023-03-31T15:18:55.418Z,18.59
2023-03-31T15:21:25.914Z,18.58
2023-03-31T15:23:56.696Z,18.40
2023-03-31T15:26:40.452Z,18.75
2023-03-31T15:29:13.782Z,18.58
2023-03-31T15:31:42.835Z,17.92
2023-03-31T15:34:17.124Z,18.24
2023-03-31T15:36:46.056Z,17.68
2023-03-31T15:39:16.285Z,17.65
2023-03-31T15:41:48.273Z,17.84
2023-03-31T15:44:40.386Z,18.30
2023-03-31T15:47:15.159Z,18.08
2023-03-31T15:49:52.484Z,18.36
2023-03-31T15:52:28.778Z,18.42
2023-03-31T15:54:57.907Z,17.88
2023-03-31T15:57:34.703Z,18.51
2023-03-31T16:00:07.382Z,17.96
2023-03-31T16:02:41.990Z,18.56
2023-03-31T16:05:26.872Z,18.70
2023-03-31T16:07:56.842Z,18.14
2023-03-31T16:10:26.798Z,18.28
2023-03-31T16:12:59.610Z,18.45
2023-03-31T16:15:32.380Z,18.49
2023-03-31T16:18:03.068Z,18.40
2023-03-31T16:20:37.308Z,18.42
2023-03-31T16:23:14.500Z,18.59
2023-03-31T16:25:43.795Z,17.95
2023-03-31T16:28:17.365Z,18.28
2023-03-31T16:30:46.709Z,18.00
2023-03-31T16:33:17.783Z,18.16
2023-03-31T16:35:51.158Z,18.27
2023-03-31T16:38:19.845Z,17.84
2023-03-31T16:40:50.316Z,18.16
2023-03-31T16:43:21.526Z,18.24
2023-03-31T16:45:51.806Z,17.90
2023-03-31T16:48:21.728Z,17.77
2023-03-31T16:50:53.224Z,17.93
2023-03-31T16:53:23.391Z,17.91
2023-03-31T16:55:52.527Z,17.68
2023-03-31T16:58:24.159Z,17.95
2023-03-31T17:00:53.579Z,17.60
2023-03-31T17:03:22.357Z,17.46
2023-03-31T17:05:53.170Z,17.68
2023-03-31T17:08:23.329Z,17.69
2023-03-31T17:10:53.300Z,17.73
2023-03-31T17:13:23.563Z,17.76
2023-03-31T17:15:58.319Z,17.31
2023-03-31T17:18:37.535Z,17.41
2023-03-31T17:21:07.780Z,17.59
2023-03-31T17:23:36.394Z,17.05
2023-03-31T17:26:06.456Z,17.29
2023-03-31T17:28:37.088Z,17.50
2023-03-31T17:31:12.831Z,17.80
2023-03-31T17:33:42.039Z,17.39
2023-03-31T17:36:11.256Z,17.31
2023-03-31T17:38:40.078Z,17.37
2023-03-31T17:41:11.220Z,17.60
2023-03-31T17:43:41.590Z,17.72
2023-03-31T17:46:12.845Z,17.25
2023-03-31T17:48:41.756Z,18.01
2023-03-31T17:51:13.936Z,17.35
2023-03-31T17:53:43.104Z,16.95
2023-03-31T17:56:12.613Z,17.08
2023-03-31T17:58:42.817Z,17.28
2023-03-31T18:01:13.705Z,17.11
2023-03-31T18:03:42.401Z,16.88
2023-03-31T18:06:12.853Z,17.10
2023-03-31T18:08:42.983Z,17.10
2023-03-31T18:11:11.878Z,16.88
2023-03-31T18:13:40.760Z,16.87
2023-03-31T18:16:13.096Z,17.19
2023-03-31T18:18:42.792Z,17.13
2023-03-31T18:21:13.218Z,17.17
2023-03-31T18:23:41.756Z,17.03
2023-03-31T18:26:11.905Z,17.20
2023-03-31T18:28:41.024Z,16.95
2023-03-31T18:31:12.698Z,17.43
2023-03-31T18:33:41.882Z,17.24
2023-03-31T18:36:17.014Z,17.60
2023-03-31T18:38:45.619Z,17.01
2023-03-31T18:41:14.481Z,17.00
2023-03-31T18:43:43.578Z,16.95
2023-03-31T18:46:14.632Z,16.97
2023-03-31T18:48:43.240Z,16.47
2023-03-31T18:51:12.518Z,16.31
2023-03-31T18:53:41.701Z,16.14
2023-03-31T18:56:10.674Z,16.02
2023-03-31T18:58:39.302Z,15.87
2023-03-31T19:01:08.441Z,15.89
2023-03-31T19:03:39.408Z,16.23
2023-03-31T19:06:10.700Z,16.13
2023-03-31T19:08:39.695Z,15.78
2023-03-31T19:11:09.674Z,16.03
2023-03-31T19:13:39.086Z,15.80
2023-03-31T19:16:08.994Z,15.80
2023-03-31T19:18:41.098Z,16.25
2023-03-31T19:21:10.676Z,15.66
2023-03-31T19:23:39.556Z,15.67
2023-03-31T19:26:09.358Z,15.70
2023-03-31T19:28:38.273Z,15.64
2023-03-31T19:31:08.085Z,15.63
2023-03-31T19:33:36.925Z,15.57
2023-03-31T19:36:08.112Z,15.99
2023-03-31T19:38:37.037Z,15.62
2023-03-31T19:41:06.754Z,15.81
2023-03-31T19:43:35.711Z,15.83
2023-03-31T19:46:04.813Z,15.85
2023-03-31T19:48:35.973Z,16.42
2023-03-31T19:51:08.594Z,16.21
2023-03-31T19:53:39.154Z,15.96
2023-03-31T19:56:09.909Z,16.45
2023-03-31T19:58:38.992Z,16.29
2023-03-31T20:01:14.259Z,16.48
2023-03-31T20:03:42.823Z,15.99
2023-03-31T20:06:14.431Z,16.43
2023-03-31T20:08:43.999Z,16.35
2023-03-31T20:11:15.412Z,16.28
2023-03-31T20:13:45.062Z,16.23
2023-03-31T20:16:15.766Z,16.17
2023-03-31T20:18:48.352Z,15.85
2023-03-31T20:21:20.696Z,16.48
2023-03-31T20:23:49.986Z,15.93
2023-03-31T20:26:20.891Z,16.05
2023-03-31T20:28:49.658Z,15.80
2023-03-31T20:31:21.221Z,16.09
2023-03-31T20:33:50.799Z,15.98
2023-03-31T20:36:22.426Z,16.02
2023-03-31T20:38:53.975Z,15.96
2023-03-31T20:41:24.513Z,15.90
2023-03-31T20:43:53.129Z,15.54
2023-03-31T20:46:22.808Z,15.68
2023-03-31T20:48:52.702Z,15.84
2023-03-31T20:51:24.867Z,16.18
2023-03-31T20:53:54.411Z,15.90
2023-03-31T20:56:25.408Z,16.15
2023-03-31T20:58:55.319Z,15.91
2023-03-31T21:01:25.011Z,15.64
2023-03-31T21:03:55.046Z,15.59
2023-03-31T21:06:25.728Z,15.88
2023-03-31T21:08:55.363Z,15.94
2023-03-31T21:11:24.440Z,15.61
2023-03-31T21:13:53.444Z,15.73
2023-03-31T21:16:22.575Z,15.53
2023-03-31T21:18:54.869Z,15.70
2023-03-31T21:21:25.745Z,15.28
2023-03-31T21:23:54.732Z,15.54
2023-03-31T21:26:25.056Z,15.62
2023-03-31T21:28:55.010Z,15.50
2023-03-31T21:31:25.283Z,15.70
2023-03-31T21:33:57.855Z,15.52
2023-03-31T21:36:28.169Z,15.51
2023-03-31T21:38:58.036Z,15.47
2023-03-31T21:41:28.210Z,15.45
2023-03-31T21:44:00.604Z,15.14
2023-03-31T21:46:33.534Z,15.40
2023-03-31T21:49:02.878Z,15.10
2023-03-31T21:51:33.044Z,15.24
2023-03-31T21:54:01.961Z,14.85
2023-03-31T21:56:32.069Z,14.91
2023-03-31T21:59:01.277Z,14.96
2023-03-31T22:01:30.173Z,14.85
2023-03-31T22:04:00.595Z,14.92
2023-03-31T22:06:29.789Z,14.60
2023-03-31T22:08:59.717Z,14.94
2023-03-31T22:11:28.630Z,14.54
2023-03-31T22:13:58.080Z,14.77
2023-03-31T22:16:27.061Z,14.29
2023-03-31T22:18:56.025Z,14.41
2023-03-31T22:21:26.488Z,14.62
2023-03-31T22:23:56.330Z,14.58
2023-03-31T22:26:27.319Z,14.70
2023-03-31T22:28:56.046Z,14.48
2023-03-31T22:31:26.337Z,14.32
2023-03-31T22:33:54.822Z,14.19
2023-03-31T22:36:23.453Z,14.15
2023-03-31T22:38:51.716Z,13.87
2023-03-31T22:41:20.832Z,14.00
2023-03-31T22:43:51.097Z,14.49
2023-03-31T22:46:19.716Z,14.05
2023-03-31T22:48:50.518Z,14.39
2023-03-31T22:51:19.395Z,13.98
2023-03-31T22:53:51.201Z,14.27
2023-03-31T22:56:21.110Z,13.93
2023-03-31T22:58:51.180Z,14.26
2023-03-31T23:01:22.049Z,14.18
2023-03-31T23:03:50.536Z,13.82
2023-03-31T23:06:19.427Z,13.97
2023-03-31T23:08:49.099Z,14.00
2023-03-31T23:11:18.902Z,14.15
2023-03-31T23:13:47.801Z,14.30
2023-03-31T23:16:20.937Z,14.54
2023-03-31T23:18:50.109Z,14.20
2023-03-31T23:21:21.903Z,14.61
2023-03-31T23:23:51.419Z,15.27
2023-03-31T23:26:20.494Z,14.22
2023-03-31T23:28:49.773Z,14.30
2023-03-31T23:31:21.001Z,14.60
2023-03-31T23:33:49.807Z,14.37
2023-03-31T23:36:21.096Z,14.43
2023-03-31T23:38:49.893Z,14.39
2023-03-31T23:41:18.843Z,14.19
2023-03-31T23:43:48.030Z,14.54
2023-03-31T23:46:16.827Z,14.19
2023-03-31T23:48:46.837Z,14.62
2023-03-31T23:51:15.514Z,14.06
2023-03-31T23:53:43.908Z,14.09
2023-03-31T23:56:14.447Z,14.18
2023-03-31T23:58:43.138Z,13.95
